Terminal Aerodrome Forecast
Issued by NWS Green Bay, WI

Home | Current Version | Previous Version | Text Only | Print | Product List | Glossary Off
Versions: 1 2 3 4 5 6 7 8 9 10 11 12 13 14 15 16 17 18 19 20 21 22 23 24 25 26 27 28 29 30 31 32 33 34 35 36 37 38

000
FTUS43 KGRB 191700
TAFGRB
TAF
KGRB 191736Z 1918/2018 27012G20KT P6SM -SHSN OVC025
      TEMPO 1918/1919 4SM -SHSN BKN019 OVC025
     FM192100 27014G20KT P6SM SCT025 BKN040
     FM200100 27013KT P6SM BKN040
     FM201200 29012KT P6SM BKN035
     FM201600 29014G20KT P6SM SCT035
      TEMPO 2016/2018 BKN035=

USA.gov is the U.S. government's official web portal to all federal, state and local government web resources and services.